Weather at London Heathrow Airport

Public forecast

Using degrees Celsius for public forecast. Weather courtesy of forecast.io.

Current aviation weather report (METAR) for London Heathrow Airport

Retrieved 2021/10/22 05:20 UTC (4 minutes ago):

EGLL 220520Z AUTO 27008KT 9999 BKN039 07/04 Q1019 NOSIG

Aviation forecast (TAF) for London Heathrow Airport

Retrieved 2021-10-22 00:00 UTC (5 hours ago):

TAF EGLL 212252Z 2200/2306 27008KT 9999 FEW030 PROB40 2302/2306 6000